createdAt,value
2018-04-30T00:01:39.547Z,56.80
2018-04-30T00:04:06.075Z,57.10
2018-04-30T00:06:32.667Z,56.80
2018-04-30T00:08:59.231Z,57.20
2018-04-30T00:11:25.764Z,57.40
2018-04-30T00:13:52.702Z,57.40
2018-04-30T00:16:19.220Z,57.40
2018-04-30T00:18:45.759Z,57.10
2018-04-30T00:21:12.299Z,57.40
2018-04-30T00:23:38.803Z,57.40
2018-04-30T00:26:05.384Z,57.40
2018-04-30T00:28:32.270Z,57.60
2018-04-30T00:30:58.803Z,57.60
2018-04-30T00:33:25.348Z,57.80
2018-04-30T00:35:51.847Z,58.00
2018-04-30T00:38:18.413Z,58.40
2018-04-30T00:40:45.316Z,58.80
2018-04-30T00:43:11.863Z,58.80
2018-04-30T00:45:38.456Z,59.10
2018-04-30T00:48:04.962Z,59.40
2018-04-30T00:50:31.498Z,59.20
2018-04-30T00:52:58.059Z,58.90
2018-04-30T00:55:24.600Z,59.00
2018-04-30T00:57:51.119Z,58.80
2018-04-30T01:00:17.679Z,58.60
2018-04-30T01:02:44.205Z,58.80
2018-04-30T01:05:11.184Z,59.60
2018-04-30T01:07:37.735Z,59.60
2018-04-30T01:10:04.343Z,59.80
2018-04-30T01:12:30.887Z,60.60
2018-04-30T01:14:57.803Z,60.80
2018-04-30T01:17:24.370Z,60.80
2018-04-30T01:19:50.899Z,60.30
2018-04-30T01:22:17.453Z,59.90
2018-04-30T01:24:43.998Z,59.60
2018-04-30T01:27:10.539Z,59.50
2018-04-30T01:29:37.057Z,59.30
2018-04-30T01:32:03.599Z,59.10
2018-04-30T01:34:30.140Z,59.00
2018-04-30T01:36:57.060Z,59.50
2018-04-30T01:39:23.563Z,59.50
2018-04-30T01:41:50.095Z,60.00
2018-04-30T01:44:16.651Z,60.30
2018-04-30T01:46:43.228Z,60.50
2018-04-30T01:49:09.719Z,60.60
2018-04-30T01:51:36.687Z,60.70
2018-04-30T01:54:03.575Z,60.90
2018-04-30T01:56:30.123Z,60.90
2018-04-30T01:58:56.660Z,61.10
2018-04-30T02:01:23.168Z,61.10
2018-04-30T02:03:50.095Z,61.40
2018-04-30T02:06:16.656Z,61.40
2018-04-30T02:08:43.231Z,61.30
2018-04-30T02:11:10.104Z,60.70
2018-04-30T02:13:36.638Z,60.70
2018-04-30T02:16:03.180Z,60.40
2018-04-30T02:18:30.127Z,59.80
2018-04-30T02:20:56.662Z,59.80
2018-04-30T02:23:23.207Z,59.50
2018-04-30T02:25:50.128Z,58.60
2018-04-30T02:28:16.659Z,58.70
2018-04-30T02:30:43.244Z,58.20
2018-04-30T02:33:09.763Z,58.10
2018-04-30T02:35:36.388Z,58.10
2018-04-30T02:38:02.928Z,58.30
2018-04-30T02:40:29.506Z,58.50
2018-04-30T02:42:56.042Z,58.70
2018-04-30T02:45:22.596Z,58.80
2018-04-30T02:47:49.163Z,58.90
2018-04-30T02:50:15.665Z,59.00
2018-04-30T02:52:42.231Z,59.50
2018-04-30T02:55:08.824Z,59.70
2018-04-30T02:57:35.375Z,59.90
2018-04-30T03:00:01.964Z,60.10
2018-04-30T03:02:28.474Z,60.40
2018-04-30T03:04:55.023Z,60.60
2018-04-30T03:07:21.591Z,60.60
2018-04-30T03:09:48.124Z,60.40
2018-04-30T03:12:15.570Z,60.30
2018-04-30T03:14:42.071Z,60.30
2018-04-30T03:17:08.619Z,60.00
2018-04-30T03:19:35.159Z,59.70
2018-04-30T03:22:01.667Z,60.40
2018-04-30T03:24:28.201Z,60.80
2018-04-30T03:26:54.731Z,61.10
2018-04-30T03:29:21.255Z,61.30
2018-04-30T03:31:47.798Z,61.40
2018-04-30T03:34:14.384Z,61.20
2018-04-30T03:36:40.935Z,60.10
2018-04-30T03:39:07.452Z,60.10
2018-04-30T03:41:33.967Z,59.20
2018-04-30T03:44:00.519Z,58.70
2018-04-30T03:46:27.096Z,58.50
2018-04-30T03:48:53.600Z,57.70
2018-04-30T03:51:20.548Z,58.10
2018-04-30T03:53:47.421Z,59.20
2018-04-30T03:56:13.996Z,59.20
2018-04-30T03:58:40.593Z,61.10
2018-04-30T04:01:19.271Z,62.20
2018-04-30T04:03:58.070Z,62.90
2018-04-30T04:06:25.903Z,63.10
2018-04-30T04:08:52.466Z,63.00
2018-04-30T04:11:18.991Z,65.00
2018-04-30T04:13:45.539Z,66.80
2018-04-30T04:16:12.115Z,67.60
2018-04-30T04:18:38.659Z,68.40
2018-04-30T04:21:05.231Z,68.30
2018-04-30T04:23:32.115Z,68.80
2018-04-30T04:25:58.659Z,68.80
2018-04-30T04:28:25.191Z,69.60
2018-04-30T04:30:52.099Z,71.90
2018-04-30T04:33:18.643Z,71.90
2018-04-30T04:35:45.146Z,72.50
2018-04-30T04:38:11.686Z,72.80
2018-04-30T04:40:38.195Z,72.50
2018-04-30T04:43:04.736Z,72.80
2018-04-30T04:45:31.287Z,73.20
2018-04-30T04:47:57.786Z,72.90
2018-04-30T04:50:24.318Z,69.30
2018-04-30T04:52:51.189Z,66.40
2018-04-30T04:55:17.775Z,66.40
2018-04-30T04:57:44.322Z,65.10
2018-04-30T05:00:10.841Z,64.10
2018-04-30T05:02:37.478Z,64.70
2018-04-30T05:05:04.257Z,65.20
2018-04-30T05:07:30.945Z,65.30
2018-04-30T05:09:58.005Z,64.00
2018-04-30T05:12:24.736Z,64.00
2018-04-30T05:14:51.291Z,63.70
2018-04-30T05:17:17.824Z,63.60
2018-04-30T05:19:44.492Z,62.90
2018-04-30T05:22:11.301Z,63.10
2018-04-30T05:24:37.823Z,63.40
2018-04-30T05:27:04.383Z,63.50
2018-04-30T05:29:31.299Z,63.90
2018-04-30T05:31:57.859Z,63.90
2018-04-30T05:34:24.404Z,63.70
2018-04-30T05:36:50.928Z,64.00
2018-04-30T05:39:17.529Z,64.20
2018-04-30T05:41:44.425Z,64.20
2018-04-30T05:44:10.984Z,64.20
2018-04-30T05:46:37.525Z,64.50
2018-04-30T05:49:04.051Z,64.10
2018-04-30T05:51:30.610Z,64.70
2018-04-30T05:53:57.139Z,64.50
2018-04-30T05:56:23.702Z,65.00
2018-04-30T05:58:50.251Z,65.20
2018-04-30T06:01:16.776Z,65.30
2018-04-30T06:03:43.718Z,65.40
2018-04-30T06:06:10.620Z,65.00
2018-04-30T06:08:37.195Z,65.00
2018-04-30T06:11:03.798Z,65.00
2018-04-30T06:13:30.330Z,64.80
2018-04-30T06:15:57.256Z,64.90
2018-04-30T06:18:23.785Z,64.90
2018-04-30T06:20:50.340Z,65.40
2018-04-30T06:23:16.928Z,65.20
2018-04-30T06:25:43.807Z,65.40
2018-04-30T06:28:10.352Z,65.50
2018-04-30T06:30:36.864Z,66.00
2018-04-30T06:33:03.802Z,66.70
2018-04-30T06:35:30.349Z,66.70
2018-04-30T06:37:56.873Z,67.70
2018-04-30T06:40:23.419Z,68.90
2018-04-30T06:42:49.995Z,68.60
2018-04-30T06:45:16.541Z,69.10
2018-04-30T06:47:43.463Z,68.80
2018-04-30T06:50:09.999Z,68.80
2018-04-30T06:52:36.553Z,69.70
2018-04-30T06:55:03.179Z,69.30
2018-04-30T06:57:29.687Z,69.40
2018-04-30T06:59:56.227Z,69.50
2018-04-30T07:02:22.763Z,69.80
2018-04-30T07:04:49.306Z,70.00
2018-04-30T07:07:15.867Z,70.30
2018-04-30T07:09:42.671Z,70.50
2018-04-30T07:12:09.025Z,71.20
2018-04-30T07:14:35.568Z,71.40
2018-04-30T07:17:02.117Z,71.60
2018-04-30T07:19:28.675Z,71.90
2018-04-30T07:21:55.184Z,71.70
2018-04-30T07:24:22.105Z,74.90
2018-04-30T07:26:49.019Z,74.80
2018-04-30T07:29:15.560Z,74.80
2018-04-30T07:31:42.119Z,75.70
2018-04-30T07:34:08.632Z,76.10
2018-04-30T07:36:35.550Z,77.30
2018-04-30T07:39:02.130Z,77.30
2018-04-30T07:41:29.063Z,75.40
2018-04-30T07:43:55.624Z,75.40
2018-04-30T07:46:22.152Z,74.00
2018-04-30T07:48:48.698Z,76.20
2018-04-30T07:51:15.219Z,71.90
2018-04-30T07:53:41.764Z,73.20
2018-04-30T07:56:08.308Z,74.30
2018-04-30T07:58:34.814Z,73.40
2018-04-30T08:01:01.403Z,73.30
2018-04-30T08:03:27.919Z,72.40
2018-04-30T08:05:54.858Z,69.40
2018-04-30T08:08:21.825Z,69.90
2018-04-30T08:10:48.704Z,69.10
2018-04-30T08:13:15.263Z,69.10
2018-04-30T08:15:41.783Z,68.20
2018-04-30T08:18:08.346Z,68.70
2018-04-30T08:20:34.889Z,69.60
2018-04-30T08:23:01.496Z,68.80
2018-04-30T08:25:28.438Z,68.80
2018-04-30T08:27:54.959Z,68.80
2018-04-30T08:30:21.562Z,66.50
2018-04-30T08:32:48.489Z,66.90
2018-04-30T08:35:15.004Z,66.90
2018-04-30T08:37:41.584Z,67.30
2018-04-30T08:40:08.101Z,67.20
2018-04-30T08:42:34.638Z,66.10
2018-04-30T08:45:01.340Z,66.10
2018-04-30T08:47:27.815Z,65.20
2018-04-30T08:49:54.723Z,65.70
2018-04-30T08:52:21.238Z,65.70
2018-04-30T08:54:47.808Z,64.30
2018-04-30T08:57:14.359Z,64.70
2018-04-30T08:59:40.890Z,62.70
2018-04-30T09:02:07.428Z,61.80
2018-04-30T09:04:33.935Z,62.40
2018-04-30T09:07:00.859Z,61.90
2018-04-30T09:09:27.485Z,61.90
2018-04-30T09:11:53.991Z,62.00
2018-04-30T09:14:20.971Z,59.10
2018-04-30T09:16:47.515Z,59.20
2018-04-30T09:19:14.065Z,58.60
2018-04-30T09:21:40.608Z,60.00
2018-04-30T09:24:07.111Z,57.70
2018-04-30T09:26:33.647Z,57.80
2018-04-30T09:29:00.239Z,58.60
2018-04-30T09:31:26.746Z,57.80
2018-04-30T09:33:53.282Z,58.10
2018-04-30T09:36:19.799Z,57.80
2018-04-30T09:38:46.368Z,58.30
2018-04-30T09:41:12.916Z,58.00
2018-04-30T09:43:39.435Z,57.10
2018-04-30T09:46:05.971Z,57.50
2018-04-30T09:48:32.515Z,57.40
2018-04-30T09:50:59.057Z,58.00
2018-04-30T09:53:25.631Z,56.50
2018-04-30T09:55:52.139Z,57.20
2018-04-30T09:58:19.055Z,56.10
2018-04-30T10:00:45.596Z,56.10
2018-04-30T10:03:12.140Z,56.50
2018-04-30T10:05:38.687Z,55.60
2018-04-30T10:08:05.215Z,56.30
2018-04-30T10:10:31.809Z,57.30
2018-04-30T10:12:58.493Z,55.00
2018-04-30T10:15:25.136Z,56.20
2018-04-30T10:17:52.191Z,54.70
2018-04-30T10:20:18.687Z,54.70
2018-04-30T10:22:45.239Z,53.60
2018-04-30T10:25:11.799Z,53.70
2018-04-30T10:27:38.340Z,54.60
2018-04-30T10:30:04.935Z,55.00
2018-04-30T10:32:31.471Z,54.90
2018-04-30T10:34:58.403Z,51.90
2018-04-30T10:37:24.975Z,51.90
2018-04-30T10:39:51.931Z,53.30
2018-04-30T10:42:18.858Z,53.70
2018-04-30T10:44:45.359Z,53.70
2018-04-30T10:47:11.915Z,53.70
2018-04-30T10:49:38.496Z,53.10
2018-04-30T10:52:05.023Z,52.80
2018-04-30T10:54:31.571Z,54.50
2018-04-30T10:56:58.189Z,54.70
2018-04-30T10:59:24.741Z,55.20
2018-04-30T11:01:51.283Z,55.70
2018-04-30T11:04:17.929Z,56.60
2018-04-30T11:06:44.498Z,56.70
2018-04-30T11:09:11.081Z,56.80
2018-04-30T11:11:38.017Z,57.70
2018-04-30T11:14:04.729Z,57.20
2018-04-30T11:16:31.312Z,57.60
2018-04-30T11:18:57.867Z,57.00
2018-04-30T11:21:24.465Z,56.00
2018-04-30T11:23:51.031Z,57.50
2018-04-30T11:26:17.579Z,57.50
2018-04-30T11:28:44.104Z,57.50
2018-04-30T11:31:11.024Z,56.50
2018-04-30T11:33:37.535Z,56.50
2018-04-30T11:36:04.129Z,56.10
2018-04-30T11:38:31.063Z,55.90
2018-04-30T11:40:57.567Z,55.90
2018-04-30T11:43:24.116Z,55.50
2018-04-30T11:45:50.671Z,56.20
2018-04-30T11:48:17.232Z,56.90
2018-04-30T11:50:43.796Z,57.40
2018-04-30T11:53:10.343Z,57.50
2018-04-30T11:55:36.967Z,57.70
2018-04-30T11:58:03.604Z,57.20
2018-04-30T12:00:30.231Z,56.70
2018-04-30T12:02:57.180Z,54.70
2018-04-30T12:05:24.091Z,53.30
2018-04-30T12:07:50.643Z,53.30
2018-04-30T12:10:17.186Z,52.60
2018-04-30T12:12:43.744Z,53.30
2018-04-30T12:15:10.354Z,52.10
2018-04-30T12:17:36.867Z,51.80
2018-04-30T12:20:03.861Z,53.80
2018-04-30T12:22:30.380Z,53.80
2018-04-30T12:24:57.345Z,55.20
2018-04-30T12:27:23.923Z,55.20
2018-04-30T12:29:50.510Z,55.60
2018-04-30T12:32:17.106Z,55.50
2018-04-30T12:34:43.642Z,57.40
2018-04-30T12:37:10.218Z,59.30
2018-04-30T12:39:37.207Z,59.90
2018-04-30T12:42:03.783Z,59.90
2018-04-30T12:44:30.711Z,59.90
2018-04-30T12:46:57.281Z,59.90
2018-04-30T12:49:31.266Z,59.20
2018-04-30T12:51:57.823Z,59.20
2018-04-30T12:54:24.378Z,57.80
2018-04-30T12:56:50.922Z,56.20
2018-04-30T12:59:17.440Z,54.90
2018-04-30T13:01:44.032Z,55.00
2018-04-30T13:04:10.962Z,53.80
2018-04-30T13:06:37.902Z,54.10
2018-04-30T13:09:05.631Z,54.10
2018-04-30T13:11:32.215Z,55.70
2018-04-30T13:13:58.738Z,56.70
2018-04-30T13:16:25.327Z,56.90
2018-04-30T13:18:51.896Z,56.20
2018-04-30T13:21:18.424Z,55.80
2018-04-30T13:23:44.971Z,55.60
2018-04-30T13:26:11.469Z,56.30
2018-04-30T13:28:38.452Z,56.70
2018-04-30T13:31:05.346Z,56.20
2018-04-30T13:33:31.854Z,56.20
2018-04-30T13:36:00.363Z,56.30
2018-04-30T13:38:28.163Z,56.20
2018-04-30T13:40:54.725Z,56.90
2018-04-30T13:43:21.409Z,57.10
2018-04-30T13:45:47.944Z,57.50
2018-04-30T13:48:14.857Z,55.60
2018-04-30T13:50:41.375Z,55.60
2018-04-30T13:53:07.930Z,54.60
2018-04-30T13:55:34.507Z,54.40
2018-04-30T13:58:01.024Z,53.20
2018-04-30T14:00:27.567Z,52.80
2018-04-30T14:02:54.089Z,51.20
2018-04-30T14:05:20.652Z,51.40
2018-04-30T14:07:47.215Z,52.10
2018-04-30T14:10:13.711Z,52.90
2018-04-30T14:12:40.640Z,55.00
2018-04-30T14:15:07.167Z,55.00
2018-04-30T14:17:33.771Z,55.70
2018-04-30T14:20:00.357Z,56.00
2018-04-30T14:22:26.878Z,56.70
2018-04-30T14:24:53.423Z,56.40
2018-04-30T14:27:19.931Z,57.10
2018-04-30T14:29:46.488Z,56.90
2018-04-30T14:32:13.026Z,57.20
2018-04-30T14:34:39.540Z,57.00
2018-04-30T14:37:06.103Z,57.40
2018-04-30T14:39:32.612Z,56.00
2018-04-30T14:41:59.227Z,56.10
2018-04-30T14:44:26.150Z,54.80
2018-04-30T14:46:52.697Z,54.80
2018-04-30T14:49:19.237Z,53.30
2018-04-30T14:51:45.769Z,54.00
2018-04-30T14:54:12.359Z,52.30
2018-04-30T14:56:39.026Z,52.10
2018-04-30T14:59:05.539Z,52.20
2018-04-30T15:01:32.082Z,51.50
2018-04-30T15:03:58.603Z,52.10
2018-04-30T15:06:25.202Z,54.30
2018-04-30T15:08:51.747Z,53.50
2018-04-30T15:11:18.263Z,52.00
2018-04-30T15:13:44.802Z,53.40
2018-04-30T15:16:11.319Z,54.30
2018-04-30T15:18:37.926Z,55.10
2018-04-30T15:21:04.490Z,54.50
2018-04-30T15:23:30.990Z,55.00
2018-04-30T15:25:57.542Z,54.80
2018-04-30T15:28:24.047Z,53.80
2018-04-30T15:30:50.606Z,53.40
2018-04-30T15:33:17.150Z,52.80
2018-04-30T15:35:43.687Z,53.00
2018-04-30T15:38:10.625Z,54.60
2018-04-30T15:40:37.210Z,54.60
2018-04-30T15:43:04.127Z,56.10
2018-04-30T15:45:30.685Z,56.10
2018-04-30T15:47:57.196Z,56.50
2018-04-30T15:50:23.732Z,56.80
2018-04-30T15:52:50.288Z,56.40
2018-04-30T15:55:16.859Z,56.90
2018-04-30T15:57:43.410Z,56.90
2018-04-30T16:00:09.943Z,57.10
2018-04-30T16:02:36.549Z,57.30
2018-04-30T16:05:03.075Z,57.20
2018-04-30T16:07:29.999Z,57.70
2018-04-30T16:09:56.546Z,57.70
2018-04-30T16:12:23.072Z,57.80
2018-04-30T16:14:49.635Z,57.50
2018-04-30T16:17:16.135Z,57.70
2018-04-30T16:19:42.718Z,56.90
2018-04-30T16:22:09.266Z,57.60
2018-04-30T16:24:35.814Z,57.20
2018-04-30T16:29:35.545Z,57.70
2018-04-30T16:32:02.154Z,57.40
2018-04-30T16:34:29.075Z,56.50
2018-04-30T16:36:55.605Z,56.50
2018-04-30T16:39:22.155Z,56.50
2018-04-30T16:41:48.707Z,57.60
2018-04-30T16:44:15.206Z,57.10
2018-04-30T16:46:42.127Z,57.90
2018-04-30T16:49:08.628Z,57.90
2018-04-30T16:51:35.172Z,57.90
2018-04-30T16:54:01.731Z,58.00
2018-04-30T16:56:28.243Z,58.30
2018-04-30T16:58:55.160Z,58.20
2018-04-30T17:01:21.673Z,58.20
2018-04-30T17:03:48.285Z,58.60
2018-04-30T17:06:14.836Z,59.10
2018-04-30T17:08:41.728Z,59.30
2018-04-30T17:11:08.267Z,59.30
2018-04-30T17:13:34.795Z,58.90
2018-04-30T17:16:01.720Z,58.90
2018-04-30T17:18:28.275Z,58.90
2018-04-30T17:20:54.824Z,59.10
2018-04-30T17:23:21.371Z,59.80
2018-04-30T17:25:47.945Z,60.30
2018-04-30T17:28:14.867Z,61.00
2018-04-30T17:30:41.416Z,61.00
2018-04-30T17:33:07.923Z,61.90
2018-04-30T17:35:34.462Z,62.90
2018-04-30T17:38:00.967Z,62.70
2018-04-30T17:40:27.519Z,63.40
2018-04-30T17:42:54.465Z,63.00
2018-04-30T17:45:20.971Z,63.00
2018-04-30T17:47:47.536Z,63.40
2018-04-30T17:50:14.060Z,63.70
2018-04-30T17:52:40.588Z,63.90
2018-04-30T17:55:07.143Z,63.40
2018-04-30T17:57:33.691Z,62.80
2018-04-30T18:00:00.263Z,63.10
2018-04-30T18:02:26.782Z,63.30
2018-04-30T18:04:53.363Z,63.10
2018-04-30T18:07:19.908Z,63.20
2018-04-30T18:09:46.431Z,63.50
2018-04-30T18:12:13.011Z,63.90
2018-04-30T18:14:39.535Z,64.20
2018-04-30T18:17:06.070Z,64.80
2018-04-30T18:19:32.659Z,64.90
2018-04-30T18:21:59.180Z,65.30
2018-04-30T18:24:25.711Z,65.50
2018-04-30T18:26:52.328Z,65.80
2018-04-30T18:29:18.863Z,65.70
2018-04-30T18:31:45.434Z,66.10
2018-04-30T18:34:11.967Z,66.60
2018-04-30T18:36:38.896Z,67.20
2018-04-30T18:39:05.478Z,67.20
2018-04-30T18:41:32.401Z,67.30
2018-04-30T18:43:58.954Z,67.30
2018-04-30T18:46:25.532Z,67.10
2018-04-30T18:48:52.485Z,67.10
2018-04-30T18:51:18.987Z,67.10
2018-04-30T18:53:45.633Z,67.30
2018-04-30T18:56:12.192Z,67.30
2018-04-30T18:58:38.703Z,67.90
2018-04-30T19:01:05.253Z,68.00
2018-04-30T19:03:32.501Z,67.40
2018-04-30T19:05:59.182Z,66.60
2018-04-30T19:08:26.356Z,68.70
2018-04-30T19:10:52.968Z,70.80
2018-04-30T19:13:19.534Z,72.00
2018-04-30T19:15:46.083Z,73.00
2018-04-30T19:18:12.739Z,75.80
2018-04-30T19:20:39.331Z,82.00
2018-04-30T19:23:06.266Z,88.20
2018-04-30T19:25:32.844Z,88.20
2018-04-30T19:27:59.754Z,88.90
2018-04-30T19:30:26.318Z,88.90
2018-04-30T19:32:52.890Z,89.70
2018-04-30T19:35:19.771Z,86.60
2018-04-30T19:37:47.192Z,86.60
2018-04-30T19:40:13.720Z,84.40
2018-04-30T19:42:40.246Z,87.00
2018-04-30T19:45:06.791Z,83.90
2018-04-30T19:47:33.333Z,84.90
2018-04-30T19:49:59.843Z,84.80
2018-04-30T19:52:27.058Z,84.80
2018-04-30T19:54:53.546Z,84.80
2018-04-30T19:57:20.847Z,82.80
2018-04-30T19:59:49.936Z,82.80
2018-04-30T20:02:17.076Z,83.30
2018-04-30T20:04:44.179Z,82.60
2018-04-30T20:07:11.008Z,82.60
2018-04-30T20:09:37.927Z,81.60
2018-04-30T20:12:04.559Z,81.60
2018-04-30T20:14:32.028Z,81.60
2018-04-30T20:16:58.582Z,81.60
2018-04-30T20:19:25.155Z,81.40
2018-04-30T20:21:51.837Z,82.20
2018-04-30T20:24:18.404Z,83.10
2018-04-30T20:26:44.912Z,82.40
2018-04-30T20:29:11.843Z,81.20
2018-04-30T20:31:38.352Z,81.20
2018-04-30T20:34:04.916Z,83.20
2018-04-30T20:36:31.480Z,83.50
2018-04-30T20:38:57.999Z,83.00
2018-04-30T20:41:24.552Z,84.10
2018-04-30T20:43:51.081Z,84.60
2018-04-30T20:46:17.659Z,84.90
2018-04-30T20:48:44.201Z,84.40
2018-04-30T20:51:10.719Z,85.80
2018-04-30T20:53:37.275Z,85.20
2018-04-30T20:56:03.819Z,85.10
2018-04-30T20:58:30.407Z,85.40
2018-04-30T21:00:56.952Z,85.40
2018-04-30T21:03:23.472Z,85.60
2018-04-30T21:05:50.040Z,85.60
2018-04-30T21:08:16.557Z,86.30
2018-04-30T21:10:43.124Z,85.90
2018-04-30T21:13:09.667Z,85.50
2018-04-30T21:15:36.262Z,84.80
2018-04-30T21:18:03.235Z,84.90
2018-04-30T21:20:29.826Z,84.90
2018-04-30T21:22:56.418Z,86.30
2018-04-30T21:25:23.371Z,85.80
2018-04-30T21:27:50.256Z,85.60
2018-04-30T21:30:16.799Z,85.60
2018-04-30T21:32:43.319Z,86.10
2018-04-30T21:35:10.223Z,85.30
2018-04-30T21:37:36.767Z,85.30
2018-04-30T21:40:03.323Z,85.70
2018-04-30T21:42:29.887Z,80.90
2018-04-30T21:44:56.415Z,80.10
2018-04-30T21:47:22.956Z,80.30
2018-04-30T21:49:49.471Z,80.20
2018-04-30T21:52:16.011Z,80.90
2018-04-30T21:54:42.896Z,81.00
2018-04-30T21:57:09.451Z,81.00
2018-04-30T21:59:35.982Z,81.20
2018-04-30T22:02:02.571Z,80.70
2018-04-30T22:04:29.114Z,81.40
2018-04-30T22:06:55.619Z,81.80
2018-04-30T22:09:22.154Z,81.40
2018-04-30T22:11:48.672Z,81.10
2018-04-30T22:14:15.264Z,79.80
2018-04-30T22:16:41.820Z,79.60
2018-04-30T22:19:08.327Z,80.00
2018-04-30T22:21:34.893Z,79.40
2018-04-30T22:24:01.500Z,78.90
2018-04-30T22:26:28.023Z,78.30
2018-04-30T22:28:54.555Z,77.50
2018-04-30T22:31:21.115Z,77.70
2018-04-30T22:33:47.628Z,79.30
2018-04-30T22:36:14.187Z,80.70
2018-04-30T22:38:40.715Z,80.20
2018-04-30T22:41:07.252Z,80.60
2018-04-30T22:43:34.182Z,81.20
2018-04-30T22:46:00.691Z,81.20
2018-04-30T22:48:27.256Z,81.30
2018-04-30T22:50:53.766Z,81.50
2018-04-30T22:53:20.314Z,82.00
2018-04-30T22:55:46.831Z,82.60
2018-04-30T22:58:13.742Z,83.70
2018-04-30T23:00:40.275Z,83.70
2018-04-30T23:03:06.807Z,84.70
2018-04-30T23:05:33.343Z,85.80
2018-04-30T23:08:00.232Z,85.30
2018-04-30T23:10:26.787Z,85.30
2018-04-30T23:12:53.353Z,85.50
2018-04-30T23:15:19.871Z,85.00
2018-04-30T23:17:46.487Z,84.80
2018-04-30T23:20:13.371Z,84.10
2018-04-30T23:22:39.923Z,84.10
2018-04-30T23:25:06.499Z,84.00
2018-04-30T23:27:33.011Z,83.60
2018-04-30T23:29:59.630Z,83.70
2018-04-30T23:32:26.530Z,84.00
2018-04-30T23:34:53.075Z,84.00
2018-04-30T23:37:19.626Z,84.10
2018-04-30T23:39:46.139Z,84.30
2018-04-30T23:42:12.691Z,83.90
2018-04-30T23:44:39.191Z,84.70
2018-04-30T23:47:05.779Z,84.50
2018-04-30T23:49:32.343Z,84.70
2018-04-30T23:51:58.847Z,85.10
2018-04-30T23:54:25.391Z,85.50
2018-04-30T23:56:52.273Z,85.40
2018-04-30T23:59:18.820Z,85.40
